createdAt,value
2016-10-04T00:00:21.526Z,99.99
2016-10-04T00:02:55.344Z,99.99
2016-10-04T00:04:54.031Z,99.99
2016-10-04T00:05:54.047Z,99.99
2016-10-04T00:06:54.046Z,99.99
2016-10-04T00:07:54.031Z,99.99
2016-10-04T00:08:54.056Z,99.99
2016-10-04T00:09:54.060Z,99.99
2016-10-04T00:10:54.067Z,99.99
2016-10-04T00:11:54.070Z,99.99
2016-10-04T00:12:54.040Z,99.99
2016-10-04T00:13:54.088Z,99.99
2016-10-04T00:14:54.084Z,99.99
2016-10-04T00:15:54.055Z,99.99
2016-10-04T00:16:54.075Z,99.99
2016-10-04T00:17:54.053Z,99.99
2016-10-04T00:18:54.061Z,99.99
2016-10-04T00:19:54.071Z,99.99
2016-10-04T00:20:54.068Z,99.99
2016-10-04T00:21:54.053Z,99.99
2016-10-04T00:22:54.046Z,99.99
2016-10-04T00:23:54.052Z,99.99
2016-10-04T00:24:54.043Z,99.99
2016-10-04T00:25:54.036Z,99.99
2016-10-04T00:26:54.078Z,99.99
2016-10-04T00:27:54.053Z,99.99
2016-10-04T00:28:54.055Z,99.99
2016-10-04T00:29:54.063Z,99.99
2016-10-04T00:30:54.069Z,99.99
2016-10-04T00:31:54.056Z,99.99
2016-10-04T00:32:54.044Z,99.99
2016-10-04T00:33:54.067Z,99.99
2016-10-04T00:34:54.051Z,99.99
2016-10-04T00:35:54.075Z,99.99
2016-10-04T00:36:54.067Z,99.99
2016-10-04T00:37:54.080Z,99.99
2016-10-04T00:38:54.057Z,99.99
2016-10-04T00:39:54.130Z,99.99
2016-10-04T00:40:54.074Z,99.99
2016-10-04T00:41:54.070Z,99.99
2016-10-04T00:42:54.082Z,99.99
2016-10-04T00:43:54.052Z,99.99
2016-10-04T00:44:54.073Z,99.99
2016-10-04T00:45:54.079Z,99.99
2016-10-04T00:46:54.108Z,99.99
2016-10-04T00:47:54.071Z,99.99
2016-10-04T00:48:54.077Z,99.99
2016-10-04T00:49:54.069Z,99.99
2016-10-04T00:50:54.098Z,99.99
2016-10-04T00:51:54.084Z,99.99
2016-10-04T00:52:54.074Z,99.99
2016-10-04T00:53:54.074Z,99.99
2016-10-04T00:54:54.074Z,99.99
2016-10-04T00:55:54.091Z,99.99
2016-10-04T00:56:54.092Z,99.99
2016-10-04T00:57:54.091Z,99.99
2016-10-04T00:58:54.065Z,99.99
2016-10-04T00:59:54.125Z,99.99
2016-10-04T01:00:54.081Z,99.99
2016-10-04T01:01:54.088Z,99.99
2016-10-04T01:02:54.080Z,99.99
2016-10-04T01:03:54.066Z,99.99
2016-10-04T01:04:54.109Z,99.99
2016-10-04T01:05:54.072Z,99.99
2016-10-04T01:06:54.073Z,99.99
2016-10-04T01:07:54.084Z,99.99
2016-10-04T01:08:54.122Z,99.99
2016-10-04T01:09:54.111Z,99.99
2016-10-04T01:10:54.074Z,99.99
2016-10-04T01:11:54.095Z,99.99
2016-10-04T01:12:54.087Z,99.99
2016-10-04T01:13:54.082Z,99.99
2016-10-04T01:14:54.098Z,99.99
2016-10-04T01:15:54.093Z,99.99
2016-10-04T01:16:54.083Z,99.99
2016-10-04T01:17:54.088Z,99.99
2016-10-04T01:18:54.097Z,99.99
2016-10-04T01:19:54.079Z,99.99
2016-10-04T01:20:54.110Z,99.99
2016-10-04T01:21:54.098Z,99.99
2016-10-04T01:22:54.098Z,99.99
2016-10-04T01:23:54.073Z,99.99
2016-10-04T01:24:54.096Z,99.99
2016-10-04T01:25:54.101Z,99.99
2016-10-04T01:26:54.084Z,99.99
2016-10-04T01:27:54.100Z,99.99
2016-10-04T01:28:54.137Z,99.99
2016-10-04T01:29:54.104Z,99.99
2016-10-04T01:30:54.090Z,99.99
2016-10-04T01:31:54.087Z,99.99
2016-10-04T01:32:54.107Z,99.99
2016-10-04T01:33:54.114Z,99.99
2016-10-04T01:34:54.109Z,99.99
2016-10-04T01:35:54.119Z,99.99
2016-10-04T01:36:54.119Z,99.99
2016-10-04T01:37:54.127Z,99.99
2016-10-04T01:38:54.112Z,99.99
2016-10-04T01:39:54.103Z,99.99
2016-10-04T01:40:54.132Z,99.99
2016-10-04T01:41:54.118Z,99.99
2016-10-04T01:42:54.113Z,99.99
2016-10-04T01:43:54.110Z,99.99
2016-10-04T01:44:54.151Z,99.99
2016-10-04T01:45:54.142Z,99.99
2016-10-04T01:46:54.118Z,99.99
2016-10-04T01:47:54.124Z,99.99
2016-10-04T01:48:54.109Z,99.99
2016-10-04T01:49:54.117Z,99.99
2016-10-04T01:50:54.103Z,99.99
2016-10-04T01:51:54.120Z,99.99
2016-10-04T01:52:54.125Z,99.99
2016-10-04T01:53:54.153Z,99.99
2016-10-04T01:54:54.111Z,99.99
2016-10-04T01:55:54.124Z,99.99
2016-10-04T01:56:54.128Z,99.99
2016-10-04T01:57:54.133Z,99.99
2016-10-04T01:58:54.117Z,99.99
2016-10-04T01:59:54.113Z,99.99
2016-10-04T02:00:54.105Z,99.99
2016-10-04T02:01:54.124Z,99.99
2016-10-04T02:02:54.117Z,99.99
2016-10-04T02:03:54.136Z,99.99
2016-10-04T02:04:54.130Z,99.99
2016-10-04T02:05:54.169Z,99.99
2016-10-04T02:06:54.114Z,99.99
2016-10-04T02:07:54.125Z,99.99
2016-10-04T02:08:54.111Z,99.99
2016-10-04T02:09:54.119Z,99.99
2016-10-04T02:10:54.132Z,99.99
2016-10-04T02:11:54.132Z,99.99
2016-10-04T02:12:54.151Z,99.99
2016-10-04T02:13:54.146Z,99.99
2016-10-04T02:14:54.123Z,99.99
2016-10-04T02:15:54.165Z,99.99
2016-10-04T02:16:54.127Z,99.99
2016-10-04T02:17:54.130Z,99.99
2016-10-04T02:18:54.135Z,99.99
2016-10-04T02:19:54.119Z,99.99
2016-10-04T02:20:54.134Z,99.99
2016-10-04T02:21:54.135Z,99.99
2016-10-04T02:22:54.123Z,99.99
2016-10-04T02:23:54.134Z,99.99
2016-10-04T02:24:54.126Z,99.99
2016-10-04T02:25:54.130Z,99.99
2016-10-04T02:26:54.147Z,99.99
2016-10-04T02:27:54.124Z,99.99
2016-10-04T02:28:54.127Z,99.99
2016-10-04T02:29:54.141Z,99.99
2016-10-04T02:30:54.143Z,99.99
2016-10-04T02:31:54.151Z,99.99
2016-10-04T02:32:54.140Z,99.99
2016-10-04T02:33:54.147Z,99.99
2016-10-04T02:34:54.139Z,99.99
2016-10-04T02:35:54.129Z,99.99
2016-10-04T02:36:54.148Z,99.99
2016-10-04T02:37:54.183Z,99.99
2016-10-04T02:38:54.183Z,99.99
2016-10-04T02:39:54.164Z,99.99
2016-10-04T02:40:54.181Z,99.99
2016-10-04T02:41:54.161Z,99.99
2016-10-04T02:42:54.138Z,99.99
2016-10-04T02:43:54.658Z,99.99
2016-10-04T02:44:54.151Z,99.99
2016-10-04T02:45:54.168Z,99.99
2016-10-04T02:46:54.158Z,99.99
2016-10-04T02:47:54.154Z,99.99
2016-10-04T02:48:54.163Z,99.99
2016-10-04T02:49:54.149Z,99.99
2016-10-04T02:50:54.690Z,99.99
2016-10-04T02:51:54.279Z,99.99
2016-10-04T02:52:54.178Z,99.99
2016-10-04T02:53:54.153Z,99.99
2016-10-04T02:54:54.159Z,99.99
2016-10-04T02:55:54.156Z,99.99
2016-10-04T02:56:54.525Z,99.99
2016-10-04T02:57:54.514Z,99.99
2016-10-04T02:58:54.756Z,99.99
2016-10-04T02:59:54.776Z,99.99
2016-10-04T03:00:54.242Z,99.99
2016-10-04T03:01:54.160Z,99.99
2016-10-04T03:02:54.157Z,99.99
2016-10-04T03:03:54.169Z,99.99
2016-10-04T03:04:54.154Z,99.99
2016-10-04T03:05:54.320Z,99.99
2016-10-04T03:06:54.179Z,99.99
2016-10-04T03:07:54.170Z,99.99
2016-10-04T03:08:54.175Z,99.99
2016-10-04T03:09:54.170Z,99.99
2016-10-04T03:10:54.175Z,99.99
2016-10-04T03:11:54.473Z,99.99
2016-10-04T03:12:54.174Z,99.99
2016-10-04T03:13:54.178Z,99.99
2016-10-04T03:14:54.170Z,99.99
2016-10-04T03:15:54.162Z,99.99
2016-10-04T03:16:54.168Z,99.99
2016-10-04T03:17:54.167Z,99.99
2016-10-04T03:18:54.173Z,99.99
2016-10-04T03:19:54.349Z,99.99
2016-10-04T03:20:54.171Z,99.99
2016-10-04T03:21:54.188Z,99.99
2016-10-04T03:22:54.179Z,99.99
2016-10-04T03:23:54.347Z,99.99
2016-10-04T03:24:55.004Z,99.99
2016-10-04T03:25:54.602Z,99.99
2016-10-04T03:26:54.177Z,99.99
2016-10-04T03:27:54.371Z,99.99
2016-10-04T03:28:54.205Z,99.99
2016-10-04T03:29:54.209Z,99.99
2016-10-04T03:30:54.185Z,99.99
2016-10-04T03:31:54.265Z,99.99
2016-10-04T03:32:54.210Z,99.99
2016-10-04T03:33:54.188Z,99.99
2016-10-04T03:34:54.225Z,99.99
2016-10-04T03:35:54.232Z,99.99
2016-10-04T03:36:54.249Z,99.99
2016-10-04T03:37:54.184Z,99.99
2016-10-04T03:38:54.240Z,99.99
2016-10-04T03:39:54.225Z,99.99
2016-10-04T03:40:54.233Z,99.99
2016-10-04T03:41:54.225Z,99.99
2016-10-04T03:42:54.204Z,99.99
2016-10-04T03:43:54.194Z,99.99
2016-10-04T03:44:54.183Z,99.99
2016-10-04T03:45:54.207Z,99.99
2016-10-04T03:46:54.213Z,99.99
2016-10-04T03:47:54.208Z,99.99
2016-10-04T03:48:54.198Z,99.99
2016-10-04T03:49:54.233Z,99.99
2016-10-04T03:50:54.239Z,99.99
2016-10-04T03:51:54.281Z,99.99
2016-10-04T03:52:54.217Z,99.99
2016-10-04T03:53:54.220Z,99.99
2016-10-04T03:54:54.212Z,99.99
2016-10-04T03:55:54.190Z,99.99
2016-10-04T03:56:54.209Z,99.99
2016-10-04T03:57:54.217Z,99.99
2016-10-04T03:58:54.224Z,99.99
2016-10-04T03:59:54.201Z,99.99
2016-10-04T04:00:54.211Z,99.99
2016-10-04T04:01:54.222Z,99.99
2016-10-04T04:02:54.213Z,99.99
2016-10-04T04:03:54.247Z,99.99
2016-10-04T04:04:54.241Z,99.99
2016-10-04T04:05:54.241Z,99.99
2016-10-04T04:06:54.229Z,99.99
2016-10-04T04:07:54.212Z,99.99
2016-10-04T04:08:54.213Z,99.99
2016-10-04T04:09:54.219Z,99.99
2016-10-04T04:10:54.218Z,99.99
2016-10-04T04:11:54.248Z,99.99
2016-10-04T04:12:54.212Z,99.99
2016-10-04T04:13:54.205Z,99.99
2016-10-04T04:14:54.221Z,99.99
2016-10-04T04:15:54.236Z,99.99
2016-10-04T04:16:54.229Z,99.99
2016-10-04T04:17:54.219Z,99.99
2016-10-04T04:18:54.224Z,99.99
2016-10-04T04:19:54.228Z,99.99
2016-10-04T04:20:54.230Z,99.99
2016-10-04T04:21:54.257Z,99.99
2016-10-04T04:22:54.234Z,99.99
2016-10-04T04:23:54.228Z,99.99
2016-10-04T04:24:54.267Z,99.99
2016-10-04T04:25:54.248Z,99.99
2016-10-04T04:26:54.288Z,99.99
2016-10-04T04:27:54.290Z,99.99
2016-10-04T04:28:54.251Z,99.99
2016-10-04T04:29:54.240Z,99.99
2016-10-04T04:30:54.260Z,99.99
2016-10-04T04:31:54.242Z,99.99
2016-10-04T04:32:54.234Z,99.99
2016-10-04T04:33:54.280Z,99.99
2016-10-04T04:34:54.238Z,99.99
2016-10-04T04:35:54.241Z,99.99
2016-10-04T04:36:54.242Z,99.99
2016-10-04T04:37:54.241Z,99.99
2016-10-04T04:38:54.272Z,99.99
2016-10-04T04:39:54.214Z,99.99
2016-10-04T04:40:54.241Z,99.99
2016-10-04T04:41:54.247Z,99.99
2016-10-04T04:42:54.299Z,99.99
2016-10-04T04:43:54.257Z,99.99
2016-10-04T04:44:54.251Z,99.99
2016-10-04T04:45:54.243Z,99.99
2016-10-04T04:46:54.251Z,99.99
2016-10-04T04:47:54.264Z,99.99
2016-10-04T04:48:54.286Z,99.99
2016-10-04T04:49:54.279Z,99.99
2016-10-04T04:50:54.316Z,99.99
2016-10-04T04:51:54.254Z,99.99
2016-10-04T04:52:54.262Z,99.99
2016-10-04T04:53:54.270Z,99.99
2016-10-04T04:54:54.247Z,99.99
2016-10-04T04:55:54.264Z,99.99
2016-10-04T04:56:54.247Z,99.99
2016-10-04T04:57:54.266Z,99.99
2016-10-04T04:58:54.257Z,99.99
2016-10-04T04:59:54.259Z,99.99
2016-10-04T05:00:54.250Z,99.99
2016-10-04T05:01:54.296Z,99.99
2016-10-04T05:02:54.289Z,99.99
2016-10-04T05:03:54.247Z,99.99
2016-10-04T05:04:54.266Z,99.99
2016-10-04T05:05:54.264Z,99.99
2016-10-04T05:06:54.262Z,99.99
2016-10-04T05:07:54.270Z,99.99
2016-10-04T05:08:54.259Z,99.99
2016-10-04T05:09:54.279Z,99.99
2016-10-04T05:10:54.276Z,99.99
2016-10-04T05:11:54.266Z,99.99
2016-10-04T05:12:54.300Z,99.99
2016-10-04T05:13:54.273Z,99.99
2016-10-04T05:14:54.263Z,99.99
2016-10-04T05:15:54.380Z,99.99
2016-10-04T05:16:54.527Z,99.99
2016-10-04T05:17:54.287Z,99.99
2016-10-04T05:18:54.264Z,99.99
2016-10-04T05:19:54.276Z,99.99
2016-10-04T05:20:54.274Z,99.99
2016-10-04T05:21:54.299Z,99.99
2016-10-04T05:22:54.289Z,99.99
2016-10-04T05:23:54.269Z,99.99
2016-10-04T05:24:54.297Z,99.99
2016-10-04T05:25:54.300Z,99.99
2016-10-04T05:26:54.297Z,99.99
2016-10-04T05:27:54.300Z,99.99
2016-10-04T05:28:54.274Z,99.99
2016-10-04T05:29:54.294Z,99.99
2016-10-04T05:30:54.283Z,99.99
2016-10-04T05:31:54.292Z,99.99
2016-10-04T05:32:54.270Z,99.99
2016-10-04T05:33:54.307Z,99.99
2016-10-04T05:34:54.270Z,99.99
2016-10-04T05:35:54.274Z,99.99
2016-10-04T05:36:54.338Z,99.99
2016-10-04T05:37:54.351Z,99.99
2016-10-04T05:38:54.315Z,99.99
2016-10-04T05:39:54.344Z,99.99
2016-10-04T05:40:54.292Z,99.99
2016-10-04T05:41:54.316Z,99.99
2016-10-04T05:42:54.331Z,99.99
2016-10-04T05:43:54.319Z,99.99
2016-10-04T05:44:54.353Z,99.99
2016-10-04T05:45:54.304Z,99.99
2016-10-04T05:46:54.312Z,99.99
2016-10-04T05:47:54.295Z,99.99
2016-10-04T05:48:54.289Z,99.99
2016-10-04T05:49:54.320Z,99.99
2016-10-04T05:50:54.947Z,99.99
2016-10-04T05:51:54.358Z,99.99
2016-10-04T05:52:54.311Z,99.99
2016-10-04T05:53:54.333Z,99.99
2016-10-04T05:54:54.313Z,99.99
2016-10-04T05:55:54.320Z,99.99
2016-10-04T05:56:54.303Z,99.99
2016-10-04T05:57:54.300Z,99.99
2016-10-04T05:58:54.334Z,99.99
2016-10-04T05:59:54.308Z,99.99
2016-10-04T06:00:54.304Z,99.99
2016-10-04T06:01:54.306Z,99.99
2016-10-04T06:02:54.312Z,99.99
2016-10-04T06:03:54.333Z,99.99
2016-10-04T06:04:54.310Z,99.99
2016-10-04T06:05:54.304Z,99.99
2016-10-04T06:06:54.311Z,99.99
2016-10-04T06:07:54.306Z,99.99
2016-10-04T06:08:54.309Z,99.99
2016-10-04T06:09:54.299Z,99.99
2016-10-04T06:10:54.306Z,99.99
2016-10-04T06:11:54.343Z,99.99
2016-10-04T06:12:54.342Z,99.99
2016-10-04T06:13:54.369Z,99.99
2016-10-04T06:14:54.367Z,99.99
2016-10-04T06:15:54.321Z,99.99
2016-10-04T06:16:54.324Z,99.99
2016-10-04T06:17:54.352Z,99.99
2016-10-04T06:18:54.345Z,99.99
2016-10-04T06:19:54.335Z,99.99
2016-10-04T06:20:54.344Z,99.99
2016-10-04T06:21:54.337Z,99.99
2016-10-04T06:22:54.334Z,99.99
2016-10-04T06:23:54.322Z,99.99
2016-10-04T06:24:54.328Z,99.99
2016-10-04T06:25:54.405Z,99.99
2016-10-04T06:26:54.382Z,99.99
2016-10-04T06:27:54.393Z,99.99
2016-10-04T06:28:54.402Z,99.99
2016-10-04T06:29:54.346Z,99.99
2016-10-04T06:30:54.317Z,99.99
2016-10-04T06:31:54.375Z,99.99
2016-10-04T06:32:54.327Z,99.99
2016-10-04T06:33:54.325Z,99.99
2016-10-04T06:34:54.340Z,99.99
2016-10-04T06:35:54.332Z,99.99
2016-10-04T06:36:54.325Z,99.99
2016-10-04T06:37:54.330Z,99.99
2016-10-04T06:38:54.329Z,99.99
2016-10-04T06:39:54.331Z,99.99
2016-10-04T06:40:54.344Z,99.99
2016-10-04T06:41:54.336Z,99.99
2016-10-04T06:42:54.380Z,99.99
2016-10-04T06:43:54.381Z,99.99
2016-10-04T06:44:54.358Z,99.99
2016-10-04T06:45:54.362Z,99.99
2016-10-04T06:46:54.345Z,99.99
2016-10-04T06:47:54.362Z,99.99
2016-10-04T06:48:54.379Z,99.99
2016-10-04T06:49:54.344Z,99.99
2016-10-04T06:50:54.366Z,99.99
2016-10-04T06:51:54.384Z,99.99
2016-10-04T06:52:54.377Z,99.99
2016-10-04T06:53:54.362Z,99.99
2016-10-04T06:54:54.401Z,99.99
2016-10-04T06:55:54.347Z,99.99
2016-10-04T06:56:54.382Z,99.99
2016-10-04T06:57:54.383Z,99.99
2016-10-04T06:58:54.362Z,99.99
2016-10-04T06:59:54.369Z,99.99
2016-10-04T07:00:54.372Z,99.99
2016-10-04T07:01:54.370Z,99.99
2016-10-04T07:02:54.355Z,99.99
2016-10-04T07:03:54.406Z,99.99
2016-10-04T07:04:54.745Z,99.99
2016-10-04T07:05:54.358Z,99.99
2016-10-04T07:06:54.367Z,99.99
2016-10-04T07:07:54.368Z,99.99
2016-10-04T07:08:54.483Z,99.99
2016-10-04T07:09:54.386Z,99.99
2016-10-04T07:10:54.426Z,99.99
2016-10-04T07:11:54.408Z,99.99
2016-10-04T07:12:54.372Z,99.99
2016-10-04T07:13:54.407Z,99.99
2016-10-04T07:14:54.408Z,99.99
2016-10-04T07:15:54.376Z,99.99
2016-10-04T07:16:54.405Z,99.99
2016-10-04T07:17:54.374Z,99.99
2016-10-04T07:18:54.395Z,99.99
2016-10-04T07:19:54.385Z,99.99
2016-10-04T07:20:54.383Z,99.99
2016-10-04T07:21:54.393Z,99.99
2016-10-04T07:22:54.379Z,99.99
2016-10-04T07:23:54.386Z,99.99
2016-10-04T07:24:54.423Z,99.99
2016-10-04T07:25:54.385Z,99.99
2016-10-04T07:26:54.393Z,99.99
2016-10-04T07:27:54.537Z,99.99
2016-10-04T07:28:54.372Z,99.99
2016-10-04T07:29:54.380Z,99.99
2016-10-04T07:30:54.390Z,99.99
2016-10-04T07:31:54.390Z,99.99
2016-10-04T07:32:54.385Z,99.99
2016-10-04T07:33:54.405Z,99.99
2016-10-04T07:34:54.400Z,99.99
2016-10-04T07:35:54.394Z,99.99
2016-10-04T07:36:54.414Z,99.99
2016-10-04T07:37:54.423Z,99.99
2016-10-04T07:38:54.422Z,99.99
2016-10-04T07:39:54.395Z,99.99
2016-10-04T07:40:54.417Z,99.99
2016-10-04T07:41:54.419Z,99.99
2016-10-04T07:42:54.425Z,99.99
2016-10-04T07:43:54.385Z,99.99
2016-10-04T07:44:54.397Z,99.99
2016-10-04T07:45:54.414Z,99.99
2016-10-04T07:46:54.410Z,99.99
2016-10-04T07:47:54.423Z,99.99
2016-10-04T07:48:54.397Z,99.99
2016-10-04T07:49:54.399Z,99.99
2016-10-04T07:50:54.422Z,99.99
2016-10-04T07:51:54.388Z,99.99
2016-10-04T07:52:54.400Z,99.99
2016-10-04T07:53:54.434Z,99.99
2016-10-04T07:54:54.435Z,99.99
2016-10-04T07:55:54.428Z,99.99
2016-10-04T07:56:54.434Z,99.99
2016-10-04T07:57:54.450Z,99.99
2016-10-04T07:58:54.529Z,99.99
2016-10-04T07:59:54.426Z,99.99
2016-10-04T08:00:54.456Z,99.99
2016-10-04T08:01:54.580Z,99.99
2016-10-04T08:02:54.424Z,99.99
2016-10-04T08:03:54.442Z,99.99
2016-10-04T08:04:54.412Z,99.99
2016-10-04T08:05:54.426Z,99.99
2016-10-04T08:06:54.405Z,99.99
2016-10-04T08:07:54.424Z,99.99
2016-10-04T08:08:54.464Z,99.99
2016-10-04T08:09:54.427Z,99.99
2016-10-04T08:10:54.812Z,99.99
2016-10-04T08:11:54.443Z,99.99
2016-10-04T08:12:54.436Z,99.99
2016-10-04T08:13:54.437Z,99.99
2016-10-04T08:14:54.445Z,99.99
2016-10-04T08:15:54.661Z,99.99
2016-10-04T08:16:54.963Z,99.99
2016-10-04T08:17:54.436Z,99.99
2016-10-04T08:18:54.501Z,99.99
2016-10-04T08:19:54.636Z,99.99
2016-10-04T08:20:54.723Z,99.99
2016-10-04T08:21:54.523Z,99.99
2016-10-04T08:22:54.447Z,99.99
2016-10-04T08:23:54.735Z,99.99
2016-10-04T08:24:54.448Z,99.99
2016-10-04T08:25:54.439Z,99.99
2016-10-04T08:26:54.453Z,99.99
2016-10-04T08:27:54.460Z,99.99
2016-10-04T08:28:54.530Z,99.99
2016-10-04T08:29:54.491Z,99.99
2016-10-04T08:30:54.472Z,99.99
2016-10-04T08:31:54.464Z,99.99
2016-10-04T08:32:54.478Z,99.99
2016-10-04T08:33:54.488Z,99.99
2016-10-04T08:34:54.460Z,99.99
2016-10-04T08:35:54.460Z,99.99
2016-10-04T08:36:54.470Z,99.99
2016-10-04T08:37:54.467Z,99.99
2016-10-04T08:38:54.490Z,99.99
2016-10-04T08:39:54.472Z,99.99
2016-10-04T08:40:54.498Z,99.99
2016-10-04T08:41:54.660Z,99.99
2016-10-04T08:42:54.458Z,99.99
2016-10-04T08:43:54.600Z,99.99
2016-10-04T08:44:54.472Z,99.99
2016-10-04T08:45:54.498Z,99.99
2016-10-04T08:46:54.479Z,99.99
2016-10-04T08:47:54.472Z,99.99
2016-10-04T08:48:54.479Z,99.99
2016-10-04T08:49:54.504Z,99.99
2016-10-04T08:50:54.479Z,99.99
2016-10-04T08:51:54.490Z,99.99
2016-10-04T08:52:54.536Z,99.99
2016-10-04T08:53:54.497Z,99.99
2016-10-04T08:54:54.535Z,99.99
2016-10-04T08:55:54.489Z,99.99
2016-10-04T08:56:54.494Z,99.99
2016-10-04T08:57:54.534Z,99.99
2016-10-04T08:58:54.481Z,99.99
2016-10-04T08:59:54.477Z,99.99
2016-10-04T09:00:54.465Z,99.99
2016-10-04T09:01:54.493Z,99.99
2016-10-04T09:02:54.483Z,99.99
2016-10-04T09:03:54.505Z,99.99
2016-10-04T09:04:54.511Z,99.99
2016-10-04T09:05:54.577Z,99.99
2016-10-04T09:06:54.639Z,99.99
2016-10-04T09:07:54.508Z,99.99
2016-10-04T09:08:54.523Z,99.99
2016-10-04T09:09:54.645Z,99.99
2016-10-04T09:10:54.488Z,99.99
2016-10-04T09:11:54.509Z,99.99
2016-10-04T09:12:54.491Z,99.99
2016-10-04T09:13:54.503Z,99.99
2016-10-04T09:14:54.571Z,99.99
2016-10-04T09:15:54.496Z,99.99
2016-10-04T09:16:54.491Z,99.99
2016-10-04T09:17:54.518Z,99.99
2016-10-04T09:18:54.511Z,99.99
2016-10-04T09:19:54.505Z,99.99
2016-10-04T09:20:54.482Z,99.99
2016-10-04T09:21:54.531Z,99.99
2016-10-04T09:22:54.519Z,99.99
2016-10-04T09:23:54.538Z,99.99
2016-10-04T09:24:54.521Z,99.99
2016-10-04T09:25:54.499Z,99.99
2016-10-04T09:26:54.527Z,99.99
2016-10-04T09:27:54.518Z,99.99
2016-10-04T09:28:54.515Z,99.99
2016-10-04T09:29:54.492Z,99.99
2016-10-04T09:30:54.560Z,99.99
2016-10-04T09:31:54.517Z,99.99
2016-10-04T09:32:54.508Z,99.99
2016-10-04T09:33:54.530Z,99.99
2016-10-04T09:34:54.540Z,99.99
2016-10-04T09:35:54.544Z,99.99
2016-10-04T09:36:54.509Z,99.99
2016-10-04T09:37:54.530Z,99.99
2016-10-04T09:38:54.536Z,99.99
2016-10-04T09:39:54.565Z,99.99
2016-10-04T09:40:54.535Z,99.99
2016-10-04T09:41:54.550Z,99.99
2016-10-04T09:42:54.522Z,99.99
2016-10-04T09:43:54.542Z,99.99
2016-10-04T09:44:54.532Z,99.99
2016-10-04T09:45:54.537Z,99.99
2016-10-04T09:46:54.539Z,99.99
2016-10-04T09:47:54.547Z,99.99
2016-10-04T09:48:54.583Z,99.99
2016-10-04T09:49:54.567Z,99.99
2016-10-04T09:50:54.533Z,99.99
2016-10-04T09:51:54.544Z,99.99
2016-10-04T09:52:54.525Z,99.99
2016-10-04T09:53:54.550Z,99.99
2016-10-04T09:54:54.545Z,99.99
2016-10-04T09:55:54.580Z,99.99
2016-10-04T09:56:54.553Z,99.99
2016-10-04T09:57:54.531Z,99.99
2016-10-04T09:58:54.573Z,99.99
2016-10-04T09:59:54.541Z,99.99
2016-10-04T10:00:54.530Z,99.99
2016-10-04T10:01:54.528Z,99.99
2016-10-04T10:02:54.565Z,99.99
2016-10-04T10:03:54.585Z,99.99
2016-10-04T10:04:54.561Z,99.99
2016-10-04T10:05:54.525Z,99.99
2016-10-04T10:06:54.533Z,99.99
2016-10-04T10:07:54.541Z,99.99
2016-10-04T10:08:54.538Z,99.99
2016-10-04T10:09:54.564Z,99.99
2016-10-04T10:10:54.578Z,99.99
2016-10-04T10:11:54.549Z,99.99
2016-10-04T10:12:54.549Z,99.63
2016-10-04T10:13:54.604Z,99.99
2016-10-04T10:14:54.538Z,99.99
2016-10-04T10:15:54.531Z,99.99
2016-10-04T10:16:54.541Z,99.99
2016-10-04T10:17:54.535Z,98.62
2016-10-04T10:18:54.556Z,96.51
2016-10-04T10:19:54.557Z,96.7
2016-10-04T10:20:54.551Z,95.46
2016-10-04T10:21:54.535Z,95.36
2016-10-04T10:22:54.585Z,92.87
2016-10-04T10:23:54.564Z,93.73
2016-10-04T10:24:54.568Z,95.26
2016-10-04T10:25:54.558Z,93.93
2016-10-04T10:26:54.617Z,92.97
2016-10-04T10:27:54.542Z,95.31
2016-10-04T10:28:54.581Z,95.89
2016-10-04T10:29:54.560Z,94.07
2016-10-04T10:30:54.533Z,96.66
2016-10-04T10:31:54.570Z,96.27
2016-10-04T10:32:54.591Z,95.7
2016-10-04T10:33:54.568Z,96.37
2016-10-04T10:34:54.557Z,94.26
2016-10-04T10:35:54.550Z,93.4
2016-10-04T10:36:54.562Z,92.44
2016-10-04T10:37:54.595Z,88.79
2016-10-04T10:38:54.571Z,89.37
2016-10-04T10:39:54.563Z,90.14
2016-10-04T10:40:54.574Z,89.18
2016-10-04T10:41:54.549Z,90.81
2016-10-04T10:42:54.569Z,91.48
2016-10-04T10:43:54.595Z,90.23
2016-10-04T10:44:54.586Z,91.19
2016-10-04T10:45:54.596Z,94.21
2016-10-04T10:46:54.598Z,90.18
2016-10-04T10:47:54.854Z,89.7
2016-10-04T10:48:54.583Z,93.82
2016-10-04T10:49:54.589Z,94.12
2016-10-04T10:50:54.566Z,92.96
2016-10-04T10:51:54.608Z,95.12
2016-10-04T10:52:54.581Z,94.35
2016-10-04T10:53:54.611Z,94.64
2016-10-04T10:54:54.593Z,95.12
2016-10-04T10:55:54.671Z,94.17
2016-10-04T10:56:54.592Z,93.4
2016-10-04T10:57:54.590Z,92.39
2016-10-04T10:58:54.600Z,93.06
2016-10-04T10:59:54.585Z,92.3
2016-10-04T11:00:54.592Z,92.24
2016-10-04T11:01:54.613Z,93.01
2016-10-04T11:02:54.585Z,89.94
2016-10-04T11:03:54.617Z,88.89
2016-10-04T11:04:54.626Z,85.92
2016-10-04T11:05:54.597Z,86.21
2016-10-04T11:06:54.614Z,90.47
2016-10-04T11:07:54.610Z,93.44
2016-10-04T11:08:54.610Z,92.29
2016-10-04T11:09:54.598Z,88.74
2016-10-04T11:10:54.610Z,89.41
2016-10-04T11:11:54.597Z,89.12
2016-10-04T11:12:54.586Z,89.85
2016-10-04T11:13:54.619Z,89.85
2016-10-04T11:14:54.615Z,89.47
2016-10-04T11:15:54.620Z,89.56
2016-10-04T11:16:54.616Z,88.51
2016-10-04T11:17:54.614Z,88.37
2016-10-04T11:18:54.644Z,88.75
2016-10-04T11:19:54.604Z,87.41
2016-10-04T11:20:54.599Z,87.02
2016-10-04T11:21:55.427Z,87.5
2016-10-04T11:22:54.655Z,87.31
2016-10-04T11:23:54.682Z,89.13
2016-10-04T11:24:54.612Z,88.75
2016-10-04T11:25:54.650Z,87.74
2016-10-04T11:26:54.628Z,88.13
2016-10-04T11:27:54.629Z,88.51
2016-10-04T11:28:54.649Z,86.83
2016-10-04T11:29:54.611Z,86.6
2016-10-04T11:30:54.630Z,84.91
2016-10-04T11:31:54.624Z,85.01
2016-10-04T11:32:54.649Z,85.78
2016-10-04T11:33:54.653Z,84.72
2016-10-04T11:34:54.618Z,85.01
2016-10-04T11:35:54.633Z,85.58
2016-10-04T11:36:54.602Z,85.88
2016-10-04T11:37:54.691Z,85.01
2016-10-04T11:38:54.665Z,85.15
2016-10-04T11:39:54.639Z,85.34
2016-10-04T11:40:54.618Z,86.58
2016-10-04T11:41:54.620Z,86.07
2016-10-04T11:42:54.684Z,85.92
2016-10-04T11:43:54.632Z,87.35
2016-10-04T11:44:54.645Z,85.53
2016-10-04T11:45:54.619Z,84.86
2016-10-04T11:46:55.001Z,82.37
2016-10-04T11:47:54.725Z,80.93
2016-10-04T11:48:54.663Z,79.88
2016-10-04T11:49:54.626Z,80.74
2016-10-04T11:50:54.649Z,81.22
2016-10-04T11:51:54.749Z,81.84
2016-10-04T11:52:54.648Z,82.31
2016-10-04T11:53:54.671Z,82.6
2016-10-04T11:54:54.636Z,82.31
2016-10-04T11:55:54.628Z,81.54
2016-10-04T11:56:54.684Z,81.78
2016-10-04T11:57:54.632Z,81.3
2016-10-04T11:58:54.656Z,83.51
2016-10-04T11:59:54.632Z,82.93
2016-10-04T12:00:54.668Z,83.6
2016-10-04T12:01:54.655Z,84.75
2016-10-04T12:02:54.692Z,83.51
2016-10-04T12:03:54.676Z,82.35
2016-10-04T12:04:54.693Z,82.35
2016-10-04T12:05:54.746Z,82.16
2016-10-04T12:06:54.682Z,83.22
2016-10-04T12:07:54.658Z,80.09
2016-10-04T12:08:54.670Z,80.38
2016-10-04T12:09:54.671Z,80.82
2016-10-04T12:10:54.650Z,81.82
2016-10-04T12:11:54.642Z,80.28
2016-10-04T12:12:54.658Z,82.1
2016-10-04T12:13:54.765Z,79.99
2016-10-04T12:14:54.685Z,80.47
2016-10-04T12:15:54.654Z,81.05
2016-10-04T12:16:54.695Z,79.03
2016-10-04T12:17:54.645Z,76.92
2016-10-04T12:18:54.691Z,75.2
2016-10-04T12:19:54.688Z,76.73
2016-10-04T12:20:54.677Z,77.31
2016-10-04T12:21:54.684Z,76.54
2016-10-04T12:22:54.661Z,76.69
2016-10-04T12:23:54.683Z,76.5
2016-10-04T12:24:54.703Z,77.26
2016-10-04T12:25:54.669Z,78.9
2016-10-04T12:26:54.672Z,77.4
2016-10-04T12:27:54.655Z,77.59
2016-10-04T12:28:54.691Z,73.75
2016-10-04T12:29:54.670Z,73.46
2016-10-04T12:30:54.688Z,72.99
2016-10-04T12:31:54.694Z,74.04
2016-10-04T12:32:54.733Z,76.06
2016-10-04T12:33:54.681Z,76.44
2016-10-04T12:34:54.660Z,73.27
2016-10-04T12:35:54.675Z,73.91
2016-10-04T12:36:54.714Z,75.35
2016-10-04T12:37:54.687Z,75.21
2016-10-04T12:38:54.684Z,76.46
2016-10-04T12:39:54.699Z,76.46
2016-10-04T12:40:54.707Z,77.65
2016-10-04T12:41:54.686Z,76.37
2016-10-04T12:42:54.712Z,76.56
2016-10-04T12:43:54.744Z,77.04
2016-10-04T12:44:54.691Z,75.79
2016-10-04T12:45:54.674Z,75.79
2016-10-04T12:46:54.695Z,75.7
2016-10-04T12:47:54.671Z,74.06
2016-10-04T12:48:54.720Z,75.7
2016-10-04T12:49:54.727Z,75.79
2016-10-04T12:50:54.691Z,74.16
2016-10-04T12:51:54.714Z,74.16
2016-10-04T12:52:54.724Z,74.54
2016-10-04T12:53:54.718Z,75.31
2016-10-04T12:54:54.693Z,75.21
2016-10-04T12:55:54.743Z,75.79